createdAt,value
2022-10-03T00:02:34.459Z,8.23
2022-10-03T00:13:00.160Z,8.33
2022-10-03T00:23:12.559Z,8.26
2022-10-03T00:33:28.555Z,8.32
2022-10-03T00:44:02.134Z,8.38
2022-10-03T00:54:26.274Z,8.36
2022-10-03T01:04:45.411Z,8.36
2022-10-03T01:15:03.295Z,8.27
2022-10-03T01:25:19.350Z,8.30
2022-10-03T01:35:34.557Z,8.41
2022-10-03T01:45:49.672Z,8.47
2022-10-03T01:56:08.751Z,8.49
2022-10-03T02:06:23.581Z,8.51
2022-10-03T02:16:38.825Z,8.57
2022-10-03T02:27:08.760Z,8.62
2022-10-03T02:37:50.387Z,8.68
2022-10-03T02:48:32.212Z,8.75
2022-10-03T02:59:06.946Z,8.83
2022-10-03T03:09:54.773Z,8.90
2022-10-03T03:20:19.966Z,8.95
2022-10-03T03:30:31.846Z,8.98
2022-10-03T03:40:46.486Z,9.01
2022-10-03T03:51:03.597Z,8.99
2022-10-03T04:01:39.493Z,8.96
2022-10-03T04:12:05.568Z,8.96
2022-10-03T04:22:22.850Z,8.96
2022-10-03T04:32:43.057Z,8.95
2022-10-03T04:43:00.374Z,8.94
2022-10-03T04:53:24.833Z,8.91
2022-10-03T05:03:43.726Z,8.89
2022-10-03T05:14:02.000Z,8.87
2022-10-03T05:24:20.640Z,8.90
2022-10-03T05:34:41.511Z,8.94
2022-10-03T05:44:57.603Z,9.00
2022-10-03T05:55:17.943Z,9.08
2022-10-03T06:05:40.036Z,9.16
2022-10-03T06:15:55.279Z,9.24
2022-10-03T06:26:25.002Z,9.41
2022-10-03T06:37:01.612Z,9.69
2022-10-03T06:47:27.108Z,9.92
2022-10-03T06:57:57.717Z,10.23
2022-10-03T07:08:47.578Z,10.35
2022-10-03T07:19:39.724Z,10.33
2022-10-03T07:30:06.344Z,10.21
2022-10-03T07:40:44.543Z,10.14
2022-10-03T07:51:03.833Z,9.94
2022-10-03T08:01:32.070Z,9.65
2022-10-03T08:11:55.177Z,9.49
2022-10-03T08:22:13.565Z,9.48
2022-10-03T08:32:52.166Z,9.75
2022-10-03T08:43:39.579Z,10.02
2022-10-03T08:54:06.187Z,10.71
2022-10-03T09:04:40.524Z,10.99
2022-10-03T09:15:16.795Z,10.67
2022-10-03T09:25:35.118Z,10.67
2022-10-03T09:35:56.064Z,11.05
2022-10-03T09:46:33.040Z,11.66
2022-10-03T09:57:05.007Z,12.56
2022-10-03T10:07:37.502Z,13.37
2022-10-03T10:18:20.562Z,13.40
2022-10-03T10:28:54.910Z,12.80
2022-10-03T10:39:39.709Z,13.15
2022-10-03T10:50:13.967Z,13.18
2022-10-03T11:00:26.461Z,12.98
2022-10-03T11:10:52.510Z,13.40
2022-10-03T11:21:37.398Z,12.73
2022-10-03T11:32:09.691Z,13.22
2022-10-03T11:42:25.765Z,13.15
2022-10-03T11:52:39.909Z,13.10
2022-10-03T12:03:13.843Z,13.08
2022-10-03T12:13:25.747Z,13.00
2022-10-03T12:23:45.188Z,13.22
2022-10-03T12:33:59.836Z,13.64
2022-10-03T12:44:22.052Z,13.87
2022-10-03T12:54:47.174Z,13.52
2022-10-03T13:05:08.926Z,13.10
2022-10-03T13:15:49.873Z,13.04
2022-10-03T13:26:11.755Z,13.38
2022-10-03T13:36:24.814Z,13.31
2022-10-03T13:46:38.449Z,13.27
2022-10-03T13:56:53.201Z,13.20
2022-10-03T14:07:06.276Z,12.58
2022-10-03T14:17:16.214Z,11.82
2022-10-03T14:27:48.213Z,11.26
2022-10-03T14:38:02.184Z,10.79
2022-10-03T14:48:20.737Z,10.54
2022-10-03T14:58:32.584Z,10.71
2022-10-03T15:08:43.005Z,10.71
2022-10-03T15:18:58.354Z,10.51
2022-10-03T15:29:06.431Z,10.30
2022-10-03T15:39:25.521Z,10.12
2022-10-03T15:49:37.193Z,9.97
2022-10-03T15:59:47.186Z,9.92
2022-10-03T16:09:56.335Z,9.78
2022-10-03T16:20:07.916Z,9.63
2022-10-03T16:30:23.867Z,9.48
2022-10-03T16:40:30.609Z,9.43
2022-10-03T16:50:42.326Z,9.28
2022-10-03T17:01:22.052Z,9.06
2022-10-03T17:11:28.892Z,8.92
2022-10-03T17:21:39.431Z,8.90
2022-10-03T17:31:49.339Z,8.85
2022-10-03T17:42:02.385Z,8.69
2022-10-03T17:52:16.674Z,8.52
2022-10-03T18:02:34.808Z,8.34
2022-10-03T18:12:42.847Z,8.24
2022-10-03T18:22:49.140Z,8.17
2022-10-03T18:33:01.450Z,8.23
2022-10-03T18:43:08.492Z,8.35
2022-10-03T18:53:21.719Z,8.32
2022-10-03T19:03:32.735Z,8.26
2022-10-03T19:13:45.766Z,8.30
2022-10-03T19:23:58.902Z,8.60
2022-10-03T19:34:08.668Z,8.77
2022-10-03T19:44:20.051Z,8.76
2022-10-03T19:54:35.916Z,8.81
2022-10-03T20:04:42.241Z,9.05
2022-10-03T20:14:52.466Z,9.16
2022-10-03T20:24:59.019Z,9.14
2022-10-03T20:35:05.638Z,9.16
2022-10-03T20:45:22.838Z,9.10
2022-10-03T20:55:32.992Z,8.86
2022-10-03T21:05:41.645Z,8.86
2022-10-03T21:15:51.051Z,8.91
2022-10-03T21:26:01.525Z,8.92
2022-10-03T21:36:13.734Z,8.98
2022-10-03T21:46:27.840Z,8.98
2022-10-03T21:56:57.129Z,8.96
2022-10-03T22:07:08.691Z,8.97
2022-10-03T22:17:23.570Z,8.96
2022-10-03T22:27:36.642Z,8.95
2022-10-03T22:37:42.908Z,8.92
2022-10-03T22:47:53.052Z,8.96
2022-10-03T22:58:00.566Z,9.01
2022-10-03T23:08:14.522Z,8.97
2022-10-03T23:18:50.058Z,8.96
2022-10-03T23:29:05.891Z,8.98
2022-10-03T23:39:35.870Z,9.01
2022-10-03T23:49:45.451Z,9.02
2022-10-03T23:59:52.017Z,9.02
